CDT,Max TemperatureF,Mean TemperatureF,Min TemperatureF,Max Dew PointF,MeanDew PointF,Min DewpointF,Max Humidity, Mean Humidity, Min Humidity, Max Sea Level PressureIn, Mean Sea Level PressureIn, Min Sea Level PressureIn, Max VisibilityMiles, Mean VisibilityMiles, Min VisibilityMiles, Max Wind SpeedMPH, Mean Wind SpeedMPH, Max Gust SpeedMPH,PrecipitationIn, CloudCover, Events, WindDirDegrees
2013-6-1,75,67,60,66,62,59,96,85,71,29.81,29.76,29.65,10,10,5,24,12,33,0.20,5,Rain-Thunderstorm,195
2013-6-2,64,56,47,60,52,44,96,87,79,30.07,29.93,29.78,10,10,10,13,9,20,0.00,6,,344
2013-6-3,66,54,42,48,44,41,100,70,47,30.14,30.09,30.05,10,9,2,8,2,,0.00,1,,46
2013-6-4,72,58,45,51,47,43,95,65,42,30.16,30.12,30.08,10,10,10,12,4,16,0.00,0,,86
2013-6-5,76,64,52,54,51,49,93,63,41,30.09,30.00,29.91,10,10,10,13,6,17,0.00,2,,72
2013-6-6,71,62,54,58,51,44,87,68,54,29.91,29.88,29.86,10,10,7,13,7,20,0.04,5,Rain,34
2013-6-7,70,61,52,56,49,41,89,66,41,29.95,29.91,29.88,10,10,10,13,7,18,0.00,3,,19
2013-6-8,77,62,47,54,48,40,90,60,34,30.02,29.97,29.92,10,10,10,10,2,,0.00,2,,65
2013-6-9,80,68,57,64,56,51,88,62,41,30.02,29.92,29.82,10,10,10,16,7,23,0.00,5,Rain,138
2013-6-10,79,70,61,66,63,59,100,78,55,29.89,29.80,29.76,10,8,0,9,4,,0.21,5,Fog-Rain-Thunderstorm,250
2013-6-11,85,72,60,68,63,57,94,68,41,29.96,29.90,29.83,10,10,7,14,5,16,0.01,1,Rain-Thunderstorm,223
2013-6-12,92,78,65,72,69,64,97,75,46,29.92,29.80,29.58,10,9,1,25,6,37,1.93,2,Rain-Thunderstorm,204
2013-6-13,74,66,58,63,57,52,99,71,51,30.06,29.94,29.73,10,10,2,16,9,21,0.01,2,,16
2013-6-14,77,64,53,61,56,51,91,74,51,30.14,30.07,30.02,10,10,7,10,6,,0.00,0,,34
2013-6-15,79,69,59,67,63,57,93,79,62,30.08,30.00,29.90,10,10,10,21,5,28,0.03,4,Rain-Thunderstorm,161
2013-6-16,81,74,66,68,65,62,93,78,58,29.96,29.93,29.89,10,10,10,16,8,23,0.00,3,,253
2013-6-17,85,74,62,68,61,52,98,65,32,29.97,29.93,29.88,10,10,4,7,2,,0.00,1,,267
2013-6-18,72,64,57,62,57,50,89,76,66,30.06,29.99,29.90,10,10,5,14,7,23,0.07,2,Rain-Thunderstorm,24
2013-6-19,78,66,55,58,55,51,88,67,43,30.14,30.10,30.05,10,10,10,10,5,16,0.00,1,,59
2013-6-20,87,74,62,67,60,54,84,60,41,30.17,30.13,30.09,10,10,10,10,5,,0.00,2,,138
2013-6-21,86,77,68,68,65,60,89,72,51,30.16,30.10,29.92,10,10,10,23,8,38,0.03,1,Rain-Thunderstorm,168
2013-6-22,77,72,65,74,67,64,97,87,75,30.12,30.05,30.00,10,9,1,17,7,17,0.30,3,Rain-Thunderstorm,186
2013-6-23,85,74,64,72,67,63,98,80,59,30.07,30.03,29.97,10,10,7,17,6,24,0.00,1,,182
2013-6-24,86,76,66,75,67,62,96,86,55,30.11,30.02,29.91,10,10,4,30,7,46,0.25,3,Rain,201
2013-6-25,87,76,66,74,70,62,98,82,66,29.99,29.91,29.82,10,9,7,18,8,28,0.00,1,Rain,197
2013-6-26,81,74,66,74,69,64,99,87,73,29.89,29.79,29.74,10,10,2,14,6,17,0.32,3,Rain,180
2013-6-27,88,76,65,73,68,62,98,75,49,29.82,29.77,29.72,10,8,2,17,5,24,0.00,1,,282
2013-6-28,82,72,63,64,62,57,90,73,45,29.74,29.68,29.63,10,10,4,21,8,28,0.09,2,Rain,280
2013-6-29,72,67,62,65,62,56,97,86,71,29.75,29.66,29.60,10,9,4,17,5,23,0.00,6,Rain,355
2013-6-30,73,68,62,63,58,48,94,72,50,29.96,29.86,29.75,10,10,4,18,8,24,0.01,7,Rain,19